Muroran, Japan

6:47 AM JST on July 29, 2016 (GMT +0900)
New Chitose | | Change Station

Elev 98 ft 42.77 °N, 141.69 °E | Updated 17 minutes ago

Light Rain Showers
Light Showers Rain Mist
70 °F
Feels Like 70 °F
N
12
Wind Variable Wind from South

Today
High -- | Low -- °F
--% Chance of Precip.
Yesterday
High -- | Low -- °F
Precip. -- in
Pressure 29.89 in
Visibility -9999.0 miles
Clouds Few 200 ft
Mostly Cloudy 300 ft
Dew Point 70 °F
Humidity 100%
Rainfall 0.00 in
Snow Depth Not available.
4:25 AM 6:58 PM
Waning Crescent, 28% visible
METAR RJCC 282130Z 19010KT 3200 -SHRA BR FEW002 BKN003 21/21 Q1012 RMK 2ST002 7ST003 A2989
Pressure 29.89 in
Visibility -9999.0 miles
Clouds Few 200 ft
Mostly Cloudy 300 ft
Dew Point 70 °F
Humidity 100%
Rainfall 0.00 in
Snow Depth Not available.
4:25 AM 6:58 PM
Waning Crescent, 28% visible
METAR RJCC 282130Z 19010KT 3200 -SHRA BR FEW002 BKN003 21/21 Q1012 RMK 2ST002 7ST003 A2989

10-Day Weather Forecast

No radar image for this location.
×

Almanac

Astronomy

Jul. 29, 2016 Rise Set
Actual Time
Civil Twilight
Nautical Twilight
Astronomical Twilight
Moon
Length of Visible Light
Length of Day
Tomorrow will be .
, % of the Moon is Illuminated

Today's Extremes

Country Highs Country Lows

Community

WunderPhotos

Upload Photos

1,928,224 photos uploaded!

WunderBlog® & News

Nearby

Air Quality

  Air Quality AQ Index Pollutant
Not available.

Snow Depth

Station Depth Elevation

Earthquake Activity

City Distance Mag. Time & Date
Minimum magnitude displayed is 2.5.

Coastal Water Temperatures

Place Temperature

Stations

Nearby Weather Stations

Station Location Temp. Windchill Dew Point Humidity Wind Precip. Elev Updated Type